NORTHEAST SUFFOLK  -  Winter Weather Advisory Winter Weather Advisory        NORTHERN NASSAU  -  Winter Weather Advisory Winter Weather Advisory        NORTHWEST SUFFOLK  -  Winter Weather Advisory Winter Weather Advisory        SOUTHEAST SUFFOLK  -  Winter Weather Advisory Winter Weather Advisory        SOUTHERN NASSAU  -  Winter Weather Advisory Winter Weather Advisory        SOUTHWEST SUFFOLK  -  Winter Weather Advisory Winter Weather Advisory      

Active alerts

Northern Nassau
  Details for Northern Nassau Winter Weather Advisory
Southern Nassau
  Details for Southern Nassau Winter Weather Advisory
Northwest Suffolk
  Details for Northwest Suffolk Winter Weather Advisory
Southwest Suffolk
  Details for Southwest Suffolk Winter Weather Advisory
Northeast Suffolk
  Details for Northeast Suffolk Winter Weather Advisory
Southeast Suffolk
  Details for Southeast Suffolk Winter Weather Advisory


WXM80 ListenWXM80 Stop

You find our weather info also at:

UK Metoffice

WeatherCloud

Weather Underground

Northeastern Weather Network

AWEKAS

Citizen Weather Observer Program (CWOP)

HAMweather, WeatherForYou, PWS Weather


Weather Underground History page Text

Daily Summary for March 31, 2017 Units:  Both    English   Metric
« Previous Day
Next Day »
Daily Weekly Monthly Yearly Custom
  High: Low: Average:
Temperature: 42.0 °F /  5.6 °C 37.0 °F /  2.8 °C 39.1 °F /  3.9 °C
Dew Point: 39.4 °F /  4.1 °C 34.8 °F /  1.6 °C 37.2 °F /  2.9 °C
Humidity: 97 % 78 % 93 %
Wind Speed: 15.8 mph /  25.4 km/h - 6.4 mph /  10.3 km/h
Wind Gust: 23.0 mph /  37 km/h - -
Wind:- - East
Pressure: 30.14 in /  1020.5 hPa 29.71 in /  1006 hPa -
Precipitation: 0.00 in /  0 mm    
Historical Graphs
 
 
Tabular Data for March 31, 2017
Time Temperature Dew Point Pressure Wind Wind Speed Wind Gust Humidity Rainfall Rate (Hourly)
00:01 42.0 °F /  5.6 °C 36.0 °F /  2.2 °C 30.10 in /  1019.2 hPa SSE 0.1 mph /  0.2 km/h 3.5 mph /  5.6 km/h 79 % 0.00 in /  0 mm
00:06 41.8 °F /  5.4 °C 36.1 °F /  2.3 °C 30.11 in /  1019.5 hPa South 3.7 mph /  6 km/h 5.0 mph /  8 km/h 80 % 0.00 in /  0 mm
00:11 41.6 °F /  5.3 °C 35.9 °F /  2.2 °C 30.11 in /  1019.5 hPa SSW 2.2 mph /  3.5 km/h 4.0 mph /  6.4 km/h 80 % 0.00 in /  0 mm
00:17 41.5 °F /  5.3 °C 35.8 °F /  2.1 °C 30.11 in /  1019.5 hPa WSW 2.0 mph /  3.2 km/h 4.6 mph /  7.4 km/h 80 % 0.00 in /  0 mm
00:22 41.4 °F /  5.2 °C 35.7 °F /  2.1 °C 30.11 in /  1019.5 hPa WSW 0.2 mph /  0.3 km/h 1.2 mph /  1.9 km/h 80 % 0.00 in /  0 mm
00:27 41.3 °F /  5.2 °C 35.6 °F /  2 °C 30.12 in /  1019.9 hPa Calm     80 % 0.00 in /  0 mm
00:32 41.3 °F /  5.2 °C 35.3 °F /  1.8 °C 30.11 in /  1019.5 hPa SW 0.4 mph /  0.6 km/h 2.0 mph /  3.2 km/h 79 % 0.00 in /  0 mm
00:37 41.3 °F /  5.2 °C 35.3 °F /  1.8 °C 30.11 in /  1019.5 hPa Calm     79 % 0.00 in /  0 mm
00:42 41.2 °F /  5.1 °C 35.2 °F /  1.8 °C 30.11 in /  1019.5 hPa Calm     79 % 0.00 in /  0 mm
00:47 41.2 °F /  5.1 °C 35.2 °F /  1.8 °C 30.11 in /  1019.5 hPa Calm     79 % 0.00 in /  0 mm
00:52 41.2 °F /  5.1 °C 34.9 °F /  1.6 °C 30.12 in /  1019.9 hPa Calm     78 % 0.00 in /  0 mm
00:57 41.1 °F /  5.1 °C 34.8 °F /  1.6 °C 30.13 in /  1020.2 hPa SW 0.4 mph /  0.6 km/h 1.2 mph /  1.9 km/h 78 % 0.00 in /  0 mm
01:02 41.2 °F /  5.1 °C 35.2 °F /  1.8 °C 30.12 in /  1019.9 hPa Calm     79 % 0.00 in /  0 mm
01:07 41.1 °F /  5.1 °C 35.1 °F /  1.7 °C 30.12 in /  1019.9 hPa Calm   1.2 mph /  1.9 km/h 79 % 0.00 in /  0 mm
01:12 41.2 °F /  5.1 °C 35.2 °F /  1.8 °C 30.12 in /  1019.9 hPa SSE 1.1 mph /  1.8 km/h 3.5 mph /  5.6 km/h 79 % 0.00 in /  0 mm
01:17 41.2 °F /  5.1 °C 35.2 °F /  1.8 °C 30.11 in /  1019.5 hPa SSE 1.0 mph /  1.6 km/h 4.0 mph /  6.4 km/h 79 % 0.00 in /  0 mm
01:22 41.3 °F /  5.2 °C 35.2 °F /  1.8 °C 30.12 in /  1019.9 hPa SE 1.0 mph /  1.6 km/h 5.0 mph /  8 km/h 79 % 0.00 in /  0 mm
01:27 41.3 °F /  5.2 °C 35.3 °F /  1.8 °C 30.12 in /  1019.9 hPa South 0.5 mph /  0.8 km/h 2.3 mph /  3.7 km/h 79 % 0.00 in /  0 mm
01:32 41.3 °F /  5.2 °C 35.3 °F /  1.8 °C 30.13 in /  1020.2 hPa Calm   1.0 mph /  1.6 km/h 79 % 0.00 in /  0 mm
01:37 41.3 °F /  5.2 °C 35.3 °F /  1.8 °C 30.13 in /  1020.2 hPa Calm   4.0 mph /  6.4 km/h 79 % 0.00 in /  0 mm
01:42 41.3 °F /  5.2 °C 35.3 °F /  1.8 °C 30.14 in /  1020.5 hPa South 2.0 mph /  3.2 km/h 5.0 mph /  8 km/h 79 % 0.00 in /  0 mm
01:47 41.4 °F /  5.2 °C 35.4 °F /  1.9 °C 30.13 in /  1020.2 hPa SSE 0.8 mph /  1.3 km/h 3.5 mph /  5.6 km/h 79 % 0.00 in /  0 mm
01:52 41.4 °F /  5.2 °C 35.7 °F /  2.1 °C 30.13 in /  1020.2 hPa SSE 1.0 mph /  1.6 km/h 7.0 mph /  11.3 km/h 80 % 0.00 in /  0 mm
01:57 41.4 °F /  5.2 °C 35.7 °F /  2.1 °C 30.13 in /  1020.2 hPa SE 0.9 mph /  1.4 km/h 3.0 mph /  4.8 km/h 80 % 0.00 in /  0 mm
02:02 41.4 °F /  5.2 °C 36.0 °F /  2.2 °C 30.13 in /  1020.2 hPa SSE 2.0 mph /  3.2 km/h 4.6 mph /  7.4 km/h 81 % 0.00 in /  0 mm
02:07 41.4 °F /  5.2 °C 36.0 °F /  2.2 °C 30.13 in /  1020.2 hPa SSE 0.8 mph /  1.3 km/h 2.3 mph /  3.7 km/h 81 % 0.00 in /  0 mm
02:12 41.3 °F /  5.2 °C 36.2 °F /  2.3 °C 30.14 in /  1020.5 hPa SSE 1.0 mph /  1.6 km/h 3.0 mph /  4.8 km/h 82 % 0.00 in /  0 mm
02:17 41.3 °F /  5.2 °C 36.2 °F /  2.3 °C 30.14 in /  1020.5 hPa Calm   3.0 mph /  4.8 km/h 82 % 0.00 in /  0 mm
02:22 41.2 °F /  5.1 °C 36.7 °F /  2.6 °C 30.13 in /  1020.2 hPa Calm   3.0 mph /  4.8 km/h 84 % 0.00 in /  0 mm
02:27 41.1 °F /  5.1 °C 36.6 °F /  2.6 °C 30.13 in /  1020.2 hPa Calm   4.0 mph /  6.4 km/h 84 % 0.00 in /  0 mm
02:32 41.0 °F /  5 °C 36.5 °F /  2.5 °C 30.12 in /  1019.9 hPa SSE 0.2 mph /  0.3 km/h 1.2 mph /  1.9 km/h 84 % 0.00 in /  0 mm
02:37 41.0 °F /  5 °C 36.5 °F /  2.5 °C 30.12 in /  1019.9 hPa SE 1.0 mph /  1.6 km/h 3.0 mph /  4.8 km/h 84 % 0.00 in /  0 mm
02:42 40.8 °F /  4.9 °C 36.7 °F /  2.6 °C 30.12 in /  1019.9 hPa ESE 1.0 mph /  1.6 km/h 3.0 mph /  4.8 km/h 85 % 0.00 in /  0 mm
02:47 40.7 °F /  4.8 °C 36.5 °F /  2.5 °C 30.12 in /  1019.9 hPa SE 0.5 mph /  0.8 km/h 3.5 mph /  5.6 km/h 85 % 0.00 in /  0 mm
02:52 40.6 °F /  4.8 °C 36.4 °F /  2.4 °C 30.12 in /  1019.9 hPa SE 1.0 mph /  1.6 km/h 3.0 mph /  4.8 km/h 85 % 0.00 in /  0 mm
02:57 40.5 °F /  4.7 °C 36.3 °F /  2.4 °C 30.11 in /  1019.5 hPa SE 0.4 mph /  0.6 km/h 2.0 mph /  3.2 km/h 85 % 0.01 in /  0.25 mm
03:02 40.4 °F /  4.7 °C 36.5 °F /  2.5 °C 30.11 in /  1019.5 hPa SE 0.6 mph /  1 km/h 2.3 mph /  3.7 km/h 86 % 0.01 in /  0.25 mm
03:08 40.2 °F /  4.6 °C 36.3 °F /  2.4 °C 30.11 in /  1019.5 hPa SE 0.3 mph /  0.5 km/h 1.2 mph /  1.9 km/h 86 % 0.01 in /  0.25 mm
03:13 40.1 °F /  4.5 °C 36.2 °F /  2.3 °C 30.12 in /  1019.9 hPa Calm     86 % 0.01 in /  0.25 mm
03:18 40.0 °F /  4.4 °C 36.4 °F /  2.4 °C 30.13 in /  1020.2 hPa Calm   1.2 mph /  1.9 km/h 87 % 0.02 in /  0.51 mm
03:23 40.0 °F /  4.4 °C 36.4 °F /  2.4 °C 30.12 in /  1019.9 hPa Calm     87 % 0.02 in /  0.51 mm
03:28 39.9 °F /  4.4 °C 36.3 °F /  2.4 °C 30.13 in /  1020.2 hPa Calm     87 % 0.02 in /  0.51 mm
03:33 39.8 °F /  4.3 °C 36.5 °F /  2.5 °C 30.13 in /  1020.2 hPa Calm     88 % 0.02 in /  0.51 mm
03:38 39.7 °F /  4.3 °C 36.4 °F /  2.4 °C 30.14 in /  1020.5 hPa Calm     88 % 0.02 in /  0.51 mm
03:43 39.7 °F /  4.3 °C 36.4 °F /  2.4 °C 30.14 in /  1020.5 hPa Calm     88 % 0.02 in /  0.51 mm
03:48 39.7 °F /  4.3 °C 36.7 °F /  2.6 °C 30.14 in /  1020.5 hPa Calm     89 % 0.02 in /  0.51 mm
03:53 39.6 °F /  4.2 °C 36.6 °F /  2.6 °C 30.14 in /  1020.5 hPa Calm     89 % 0.01 in /  0.25 mm
03:58 39.6 °F /  4.2 °C 36.6 °F /  2.6 °C 30.13 in /  1020.2 hPa Calm     89 % 0.01 in /  0.25 mm
04:03 39.6 °F /  4.2 °C 36.6 °F /  2.6 °C 30.13 in /  1020.2 hPa Calm     89 % 0.01 in /  0.25 mm
04:08 39.5 °F /  4.2 °C 36.8 °F /  2.7 °C 30.11 in /  1019.5 hPa SE 1.0 mph /  1.6 km/h 2.3 mph /  3.7 km/h 90 % 0.01 in /  0.25 mm
04:13 39.5 °F /  4.2 °C 36.8 °F /  2.7 °C 30.12 in /  1019.9 hPa East 1.9 mph /  3.1 km/h 2.3 mph /  3.7 km/h 90 % 0.01 in /  0.25 mm
04:18 39.2 °F /  4 °C 36.2 °F /  2.3 °C 30.11 in /  1019.5 hPa SE 1.4 mph /  2.3 km/h 3.5 mph /  5.6 km/h 89 % 0.01 in /  0.25 mm
04:23 38.8 °F /  3.8 °C 35.6 °F /  2 °C 30.11 in /  1019.5 hPa SSE 4.7 mph /  7.6 km/h 7.0 mph /  11.3 km/h 88 % 0.01 in /  0.25 mm
04:28 38.5 °F /  3.6 °C 35.3 °F /  1.8 °C 30.11 in /  1019.5 hPa SSE 1.0 mph /  1.6 km/h 3.5 mph /  5.6 km/h 88 % 0.01 in /  0.25 mm
04:33 38.3 °F /  3.5 °C 35.1 °F /  1.7 °C 30.10 in /  1019.2 hPa SSE 0.5 mph /  0.8 km/h 1.2 mph /  1.9 km/h 88 % 0.01 in /  0.25 mm
04:38 38.2 °F /  3.4 °C 35.0 °F /  1.7 °C 30.11 in /  1019.5 hPa SSE 0.7 mph /  1.1 km/h 2.3 mph /  3.7 km/h 88 % 0.01 in /  0.25 mm
04:43 38.0 °F /  3.3 °C 35.0 °F /  1.7 °C 30.11 in /  1019.5 hPa SSE 0.2 mph /  0.3 km/h 1.2 mph /  1.9 km/h 89 % 0.02 in /  0.51 mm
04:48 37.8 °F /  3.2 °C 34.8 °F /  1.6 °C 30.10 in /  1019.2 hPa SSE 0.1 mph /  0.2 km/h 1.2 mph /  1.9 km/h 89 % 0.02 in /  0.51 mm
04:53 37.7 °F /  3.2 °C 34.8 °F /  1.6 °C 30.10 in /  1019.2 hPa Calm   1.2 mph /  1.9 km/h 89 % 0.02 in /  0.51 mm
04:58 37.7 °F /  3.2 °C 35.0 °F /  1.7 °C 30.10 in /  1019.2 hPa SSE 0.9 mph /  1.4 km/h 2.3 mph /  3.7 km/h 90 % 0.02 in /  0.51 mm
05:03 37.5 °F /  3.1 °C 35.1 °F /  1.7 °C 30.10 in /  1019.2 hPa SSE 0.3 mph /  0.5 km/h 2.3 mph /  3.7 km/h 91 % 0.02 in /  0.51 mm
05:08 37.4 °F /  3 °C 35.0 °F /  1.7 °C 30.10 in /  1019.2 hPa Calm     91 % 0.02 in /  0.51 mm
05:14 37.3 °F /  2.9 °C 34.9 °F /  1.6 °C 30.10 in /  1019.2 hPa SSE 0.7 mph /  1.1 km/h 1.2 mph /  1.9 km/h 91 % 0.03 in /  0.76 mm
05:19 37.3 °F /  2.9 °C 34.9 °F /  1.6 °C 30.10 in /  1019.2 hPa Calm     91 % 0.02 in /  0.51 mm
05:24 37.3 °F /  2.9 °C 34.9 °F /  1.6 °C 30.10 in /  1019.2 hPa Calm     91 % 0.02 in /  0.51 mm
05:29 37.3 °F /  2.9 °C 35.2 °F /  1.8 °C 30.10 in /  1019.2 hPa SSE 0.1 mph /  0.2 km/h 1.2 mph /  1.9 km/h 92 % 0.05 in /  1.27 mm
05:34 37.4 °F /  3 °C 35.3 °F /  1.8 °C 30.10 in /  1019.2 hPa Calm     92 % 0.07 in /  1.78 mm
05:39 37.4 °F /  3 °C 35.6 °F /  2 °C 30.10 in /  1019.2 hPa Calm   1.2 mph /  1.9 km/h 93 % 0.08 in /  2.03 mm
05:44 37.4 °F /  3 °C 35.6 °F /  2 °C 30.10 in /  1019.2 hPa SSE 0.2 mph /  0.3 km/h 1.2 mph /  1.9 km/h 93 % 0.07 in /  1.78 mm
05:49 37.3 °F /  2.9 °C 35.5 °F /  1.9 °C 30.09 in /  1018.8 hPa ESE 0.7 mph /  1.1 km/h 2.0 mph /  3.2 km/h 93 % 0.07 in /  1.78 mm
05:54 37.3 °F /  2.9 °C 35.5 °F /  1.9 °C 30.09 in /  1018.8 hPa ESE 1.0 mph /  1.6 km/h 2.3 mph /  3.7 km/h 93 % 0.07 in /  1.78 mm
05:59 37.3 °F /  2.9 °C 35.5 °F /  1.9 °C 30.09 in /  1018.8 hPa ESE 0.6 mph /  1 km/h 1.2 mph /  1.9 km/h 93 % 0.07 in /  1.78 mm
06:04 37.3 °F /  2.9 °C 35.5 °F /  1.9 °C 30.08 in /  1018.5 hPa ESE 2.0 mph /  3.2 km/h 2.3 mph /  3.7 km/h 93 % 0.07 in /  1.78 mm
06:09 37.2 °F /  2.9 °C 35.4 °F /  1.9 °C 30.08 in /  1018.5 hPa ESE 0.9 mph /  1.4 km/h 2.3 mph /  3.7 km/h 93 % 0.07 in /  1.78 mm
06:14 37.2 °F /  2.9 °C 35.4 °F /  1.9 °C 30.08 in /  1018.5 hPa ESE 1.1 mph /  1.8 km/h 2.3 mph /  3.7 km/h 93 % 0.06 in /  1.52 mm
06:19 37.2 °F /  2.9 °C 35.6 °F /  2 °C 30.08 in /  1018.5 hPa East 1.5 mph /  2.4 km/h 4.6 mph /  7.4 km/h 94 % 0.06 in /  1.52 mm
06:24 37.2 °F /  2.9 °C 35.6 °F /  2 °C 30.08 in /  1018.5 hPa East 1.3 mph /  2.1 km/h 2.3 mph /  3.7 km/h 94 % 0.06 in /  1.52 mm
06:29 37.2 °F /  2.9 °C 35.6 °F /  2 °C 30.08 in /  1018.5 hPa East 1.5 mph /  2.4 km/h 2.3 mph /  3.7 km/h 94 % 0.03 in /  0.76 mm
06:34 37.2 °F /  2.9 °C 35.6 °F /  2 °C 30.08 in /  1018.5 hPa East 3.3 mph /  5.3 km/h 5.0 mph /  8 km/h 94 % 0.01 in /  0.25 mm
06:39 37.1 °F /  2.8 °C 35.5 °F /  1.9 °C 30.08 in /  1018.5 hPa East 2.8 mph /  4.5 km/h 5.0 mph /  8 km/h 94 % 0.00 in /  0 mm
06:44 37.1 °F /  2.8 °C 35.5 °F /  1.9 °C 30.08 in /  1018.5 hPa East 1.9 mph /  3.1 km/h 4.6 mph /  7.4 km/h 94 % 0.00 in /  0 mm
06:49 37.1 °F /  2.8 °C 35.5 °F /  1.9 °C 30.08 in /  1018.5 hPa East 1.3 mph /  2.1 km/h 2.3 mph /  3.7 km/h 94 % 0.00 in /  0 mm
06:54 37.1 °F /  2.8 °C 35.5 °F /  1.9 °C 30.07 in /  1018.2 hPa East 1.7 mph /  2.7 km/h 3.5 mph /  5.6 km/h 94 % 0.00 in /  0 mm
06:59 37.1 °F /  2.8 °C 35.5 °F /  1.9 °C 30.07 in /  1018.2 hPa East 1.7 mph /  2.7 km/h 3.0 mph /  4.8 km/h 94 % 0.00 in /  0 mm
07:04 37.1 °F /  2.8 °C 35.5 °F /  1.9 °C 30.08 in /  1018.5 hPa SE 0.5 mph /  0.8 km/h 3.5 mph /  5.6 km/h 94 % 0.00 in /  0 mm
07:06 37.1 °F /  2.8 °C 35.5 °F /  1.9 °C 30.08 in /  1018.5 hPa ESE 0.3 mph /  0.5 km/h 3.5 mph /  5.6 km/h 94 % 0.00 in /  0 mm
07:11 37.1 °F /  2.8 °C 35.5 °F /  1.9 °C 30.08 in /  1018.5 hPa ESE 2.2 mph /  3.5 km/h 3.5 mph /  5.6 km/h 94 % 0.00 in /  0 mm
07:16 37.1 °F /  2.8 °C 35.5 °F /  1.9 °C 30.07 in /  1018.2 hPa ESE 2.0 mph /  3.2 km/h 3.5 mph /  5.6 km/h 94 % 0.00 in /  0 mm
07:21 37.0 °F /  2.8 °C 35.4 °F /  1.9 °C 30.07 in /  1018.2 hPa East 1.4 mph /  2.3 km/h 2.3 mph /  3.7 km/h 94 % 0.00 in /  0 mm
07:26 37.1 °F /  2.8 °C 35.8 °F /  2.1 °C 30.07 in /  1018.2 hPa East 1.8 mph /  2.9 km/h 3.5 mph /  5.6 km/h 95 % 0.00 in /  0 mm
07:31 37.1 °F /  2.8 °C 35.5 °F /  1.9 °C 30.07 in /  1018.2 hPa East 2.9 mph /  4.7 km/h 5.0 mph /  8 km/h 94 % 0.00 in /  0 mm
07:36 37.1 °F /  2.8 °C 35.5 °F /  1.9 °C 30.07 in /  1018.2 hPa East 1.6 mph /  2.6 km/h 2.3 mph /  3.7 km/h 94 % 0.00 in /  0 mm
07:41 37.2 °F /  2.9 °C 35.9 °F /  2.2 °C 30.07 in /  1018.2 hPa East 1.7 mph /  2.7 km/h 3.5 mph /  5.6 km/h 95 % 0.00 in /  0 mm
07:46 37.2 °F /  2.9 °C 35.9 °F /  2.2 °C 30.07 in /  1018.2 hPa East 1.6 mph /  2.6 km/h 3.5 mph /  5.6 km/h 95 % 0.00 in /  0 mm
07:51 37.3 °F /  2.9 °C 36.0 °F /  2.2 °C 30.07 in /  1018.2 hPa East 3.8 mph /  6.1 km/h 5.0 mph /  8 km/h 95 % 0.00 in /  0 mm
07:56 37.4 °F /  3 °C 36.1 °F /  2.3 °C 30.07 in /  1018.2 hPa East 3.8 mph /  6.1 km/h 5.0 mph /  8 km/h 95 % 0.00 in /  0 mm
08:01 37.4 °F /  3 °C 36.1 °F /  2.3 °C 30.07 in /  1018.2 hPa East 3.6 mph /  5.8 km/h 5.8 mph /  9.3 km/h 95 % 0.00 in /  0 mm
08:06 37.5 °F /  3.1 °C 36.2 °F /  2.3 °C 30.07 in /  1018.2 hPa East 4.9 mph /  7.9 km/h 6.0 mph /  9.7 km/h 95 % 0.00 in /  0 mm
08:11 37.5 °F /  3.1 °C 36.2 °F /  2.3 °C 30.07 in /  1018.2 hPa East 4.1 mph /  6.6 km/h 6.9 mph /  11.1 km/h 95 % 0.00 in /  0 mm
08:16 37.6 °F /  3.1 °C 36.3 °F /  2.4 °C 30.07 in /  1018.2 hPa East 5.2 mph /  8.4 km/h 6.9 mph /  11.1 km/h 95 % 0.00 in /  0 mm
08:21 37.7 °F /  3.2 °C 36.4 °F /  2.4 °C 30.07 in /  1018.2 hPa ENE 3.2 mph /  5.1 km/h 4.6 mph /  7.4 km/h 95 % 0.00 in /  0 mm
08:26 37.8 °F /  3.2 °C 36.8 °F /  2.7 °C 30.07 in /  1018.2 hPa East 5.8 mph /  9.3 km/h 6.9 mph /  11.1 km/h 96 % 0.00 in /  0 mm
08:31 37.8 °F /  3.2 °C 36.8 °F /  2.7 °C 30.07 in /  1018.2 hPa East 5.7 mph /  9.2 km/h 8.0 mph /  12.9 km/h 96 % 0.01 in /  0.25 mm
08:36 37.9 °F /  3.3 °C 36.9 °F /  2.7 °C 30.07 in /  1018.2 hPa East 4.6 mph /  7.4 km/h 6.9 mph /  11.1 km/h 96 % 0.01 in /  0.25 mm
08:41 37.9 °F /  3.3 °C 36.9 °F /  2.7 °C 30.07 in /  1018.2 hPa ENE 5.1 mph /  8.2 km/h 6.0 mph /  9.7 km/h 96 % 0.01 in /  0.25 mm
08:46 37.8 °F /  3.2 °C 36.8 °F /  2.7 °C 30.07 in /  1018.2 hPa ENE 5.5 mph /  8.9 km/h 6.9 mph /  11.1 km/h 96 % 0.01 in /  0.25 mm
08:51 37.8 °F /  3.2 °C 36.8 °F /  2.7 °C 30.07 in /  1018.2 hPa East 6.5 mph /  10.5 km/h 7.0 mph /  11.3 km/h 96 % 0.01 in /  0.25 mm
08:56 37.9 °F /  3.3 °C 36.9 °F /  2.7 °C 30.06 in /  1017.8 hPa ENE 5.6 mph /  9 km/h 8.1 mph /  13 km/h 96 % 0.01 in /  0.25 mm
09:01 38.0 °F /  3.3 °C 37.0 °F /  2.8 °C 30.06 in /  1017.8 hPa ENE 6.4 mph /  10.3 km/h 8.1 mph /  13 km/h 96 % 0.01 in /  0.25 mm
09:06 38.0 °F /  3.3 °C 37.0 °F /  2.8 °C 30.06 in /  1017.8 hPa East 5.2 mph /  8.4 km/h 6.9 mph /  11.1 km/h 96 % 0.01 in /  0.25 mm
09:11 38.1 °F /  3.4 °C 37.1 °F /  2.8 °C 30.06 in /  1017.8 hPa East 6.0 mph /  9.7 km/h 9.2 mph /  14.8 km/h 96 % 0.01 in /  0.25 mm
09:16 38.1 °F /  3.4 °C 37.1 °F /  2.8 °C 30.06 in /  1017.8 hPa East 7.3 mph /  11.7 km/h 9.2 mph /  14.8 km/h 96 % 0.01 in /  0.25 mm
09:21 38.2 °F /  3.4 °C 37.2 °F /  2.9 °C 30.06 in /  1017.8 hPa East 6.0 mph /  9.7 km/h 8.1 mph /  13 km/h 96 % 0.01 in /  0.25 mm
09:26 38.2 °F /  3.4 °C 37.2 °F /  2.9 °C 30.05 in /  1017.5 hPa ENE 6.5 mph /  10.5 km/h 9.2 mph /  14.8 km/h 96 % 0.01 in /  0.25 mm
09:31 38.3 °F /  3.5 °C 37.3 °F /  2.9 °C 30.05 in /  1017.5 hPa East 6.1 mph /  9.8 km/h 8.1 mph /  13 km/h 96 % 0.00 in /  0 mm
09:36 38.4 °F /  3.6 °C 37.4 °F /  3 °C 30.05 in /  1017.5 hPa East 4.4 mph /  7.1 km/h 6.9 mph /  11.1 km/h 96 % 0.00 in /  0 mm
09:41 38.5 °F /  3.6 °C 37.5 °F /  3.1 °C 30.04 in /  1017.2 hPa East 6.3 mph /  10.1 km/h 8.1 mph /  13 km/h 96 % 0.00 in /  0 mm
09:46 38.5 °F /  3.6 °C 37.5 °F /  3.1 °C 30.04 in /  1017.2 hPa ENE 6.0 mph /  9.7 km/h 9.2 mph /  14.8 km/h 96 % 0.01 in /  0.25 mm
09:51 38.6 °F /  3.7 °C 37.6 °F /  3.1 °C 30.04 in /  1017.2 hPa East 5.8 mph /  9.3 km/h 9.2 mph /  14.8 km/h 96 % 0.01 in /  0.25 mm
09:56 38.6 °F /  3.7 °C 37.6 °F /  3.1 °C 30.04 in /  1017.2 hPa East 4.5 mph /  7.2 km/h 6.0 mph /  9.7 km/h 96 % 0.01 in /  0.25 mm
10:01 38.7 °F /  3.7 °C 37.7 °F /  3.2 °C 30.04 in /  1017.2 hPa East 3.9 mph /  6.3 km/h 6.9 mph /  11.1 km/h 96 % 0.01 in /  0.25 mm
10:06 38.8 °F /  3.8 °C 38.0 °F /  3.3 °C 30.04 in /  1017.2 hPa East 5.8 mph /  9.3 km/h 6.9 mph /  11.1 km/h 97 % 0.01 in /  0.25 mm
10:11 38.9 °F /  3.8 °C 38.1 °F /  3.4 °C 30.04 in /  1017.2 hPa East 2.5 mph /  4 km/h 4.6 mph /  7.4 km/h 97 % 0.01 in /  0.25 mm
10:16 39.0 °F /  3.9 °C 38.0 °F /  3.3 °C 30.03 in /  1016.8 hPa ENE 3.5 mph /  5.6 km/h 5.8 mph /  9.3 km/h 96 % 0.01 in /  0.25 mm
10:21 39.1 °F /  3.9 °C 38.3 °F /  3.5 °C 30.04 in /  1017.2 hPa East 4.2 mph /  6.8 km/h 6.9 mph /  11.1 km/h 97 % 0.01 in /  0.25 mm
10:26 39.1 °F /  3.9 °C 38.3 °F /  3.5 °C 30.04 in /  1017.2 hPa East 3.6 mph /  5.8 km/h 6.9 mph /  11.1 km/h 97 % 0.01 in /  0.25 mm
10:31 39.2 °F /  4 °C 38.4 °F /  3.6 °C 30.04 in /  1017.2 hPa East 5.6 mph /  9 km/h 8.0 mph /  12.9 km/h 97 % 0.01 in /  0.25 mm
10:36 39.3 °F /  4.1 °C 38.5 °F /  3.6 °C 30.03 in /  1016.8 hPa East 4.8 mph /  7.7 km/h 6.9 mph /  11.1 km/h 97 % 0.01 in /  0.25 mm
10:41 39.4 °F /  4.1 °C 38.6 °F /  3.7 °C 30.03 in /  1016.8 hPa East 4.2 mph /  6.8 km/h 6.9 mph /  11.1 km/h 97 % 0.01 in /  0.25 mm
10:46 39.5 °F /  4.2 °C 38.7 °F /  3.7 °C 30.03 in /  1016.8 hPa East 3.2 mph /  5.1 km/h 5.0 mph /  8 km/h 97 % 0.00 in /  0 mm
10:51 39.6 °F /  4.2 °C 38.8 °F /  3.8 °C 30.03 in /  1016.8 hPa East 4.5 mph /  7.2 km/h 6.9 mph /  11.1 km/h 97 % 0.00 in /  0 mm
10:56 39.8 °F /  4.3 °C 39.0 °F /  3.9 °C 30.03 in /  1016.8 hPa East 2.7 mph /  4.3 km/h 8.1 mph /  13 km/h 97 % 0.00 in /  0 mm
11:02 39.8 °F /  4.3 °C 39.0 °F /  3.9 °C 30.03 in /  1016.8 hPa East 4.3 mph /  6.9 km/h 9.2 mph /  14.8 km/h 97 % 0.00 in /  0 mm
11:06 39.8 °F /  4.3 °C 39.0 °F /  3.9 °C 30.02 in /  1016.5 hPa SE 4.4 mph /  7.1 km/h 10.4 mph /  16.7 km/h 97 % 0.00 in /  0 mm
11:11 39.9 °F /  4.4 °C 39.1 °F /  3.9 °C 30.02 in /  1016.5 hPa East 3.8 mph /  6.1 km/h 9.2 mph /  14.8 km/h 97 % 0.00 in /  0 mm
11:16 39.9 °F /  4.4 °C 39.1 °F /  3.9 °C 30.02 in /  1016.5 hPa East 5.1 mph /  8.2 km/h 6.9 mph /  11.1 km/h 97 % 0.01 in /  0.25 mm
11:21 39.9 °F /  4.4 °C 39.1 °F /  3.9 °C 30.02 in /  1016.5 hPa ESE 4.4 mph /  7.1 km/h 6.9 mph /  11.1 km/h 97 % 0.01 in /  0.25 mm
11:26 40.0 °F /  4.4 °C 39.2 °F /  4 °C 30.02 in /  1016.5 hPa East 7.0 mph /  11.3 km/h 8.1 mph /  13 km/h 97 % 0.01 in /  0.25 mm
11:31 40.0 °F /  4.4 °C 39.2 °F /  4 °C 30.02 in /  1016.5 hPa East 4.6 mph /  7.4 km/h 8.1 mph /  13 km/h 97 % 0.01 in /  0.25 mm
11:36 40.0 °F /  4.4 °C 39.2 °F /  4 °C 30.02 in /  1016.5 hPa East 7.1 mph /  11.4 km/h 10.4 mph /  16.7 km/h 97 % 0.01 in /  0.25 mm
11:41 40.0 °F /  4.4 °C 39.2 °F /  4 °C 30.01 in /  1016.1 hPa ESE 6.7 mph /  10.8 km/h 11.5 mph /  18.5 km/h 97 % 0.01 in /  0.25 mm
11:46 40.1 °F /  4.5 °C 39.3 °F /  4.1 °C 30.01 in /  1016.1 hPa East 6.9 mph /  11.1 km/h 9.2 mph /  14.8 km/h 97 % 0.01 in /  0.25 mm
11:51 40.1 °F /  4.5 °C 39.3 °F /  4.1 °C 30.01 in /  1016.1 hPa East 6.1 mph /  9.8 km/h 9.2 mph /  14.8 km/h 97 % 0.01 in /  0.25 mm
11:57 40.0 °F /  4.4 °C 39.0 °F /  3.9 °C 30.01 in /  1016.1 hPa East 7.4 mph /  11.9 km/h 10.4 mph /  16.7 km/h 96 % 0.01 in /  0.25 mm
12:02 39.9 °F /  4.4 °C 38.9 °F /  3.8 °C 30.01 in /  1016.1 hPa ESE 7.4 mph /  11.9 km/h 10.4 mph /  16.7 km/h 96 % 0.01 in /  0.25 mm
12:07 39.9 °F /  4.4 °C 38.9 °F /  3.8 °C 30.01 in /  1016.1 hPa East 5.8 mph /  9.3 km/h 9.2 mph /  14.8 km/h 96 % 0.01 in /  0.25 mm
12:12 39.9 °F /  4.4 °C 38.9 °F /  3.8 °C 30.00 in /  1015.8 hPa SE 3.3 mph /  5.3 km/h 6.0 mph /  9.7 km/h 96 % 0.01 in /  0.25 mm
12:17 40.0 °F /  4.4 °C 39.0 °F /  3.9 °C 30.00 in /  1015.8 hPa East 8.5 mph /  13.7 km/h 11.5 mph /  18.5 km/h 96 % 0.00 in /  0 mm
12:22 40.0 °F /  4.4 °C 39.0 °F /  3.9 °C 30.00 in /  1015.8 hPa East 7.2 mph /  11.6 km/h 9.2 mph /  14.8 km/h 96 % 0.00 in /  0 mm
12:27 40.1 °F /  4.5 °C 39.1 °F /  3.9 °C 30.00 in /  1015.8 hPa ESE 4.4 mph /  7.1 km/h 12.7 mph /  20.4 km/h 96 % 0.00 in /  0 mm
12:32 40.1 °F /  4.5 °C 39.1 °F /  3.9 °C 30.00 in /  1015.8 hPa East 4.8 mph /  7.7 km/h 7.0 mph /  11.3 km/h 96 % 0.00 in /  0 mm
12:37 40.2 °F /  4.6 °C 39.2 °F /  4 °C 29.99 in /  1015.5 hPa East 3.5 mph /  5.6 km/h 4.6 mph /  7.4 km/h 96 % 0.00 in /  0 mm
12:42 40.3 °F /  4.6 °C 39.3 °F /  4.1 °C 29.99 in /  1015.5 hPa East 5.2 mph /  8.4 km/h 6.9 mph /  11.1 km/h 96 % 0.00 in /  0 mm
12:47 40.4 °F /  4.7 °C 39.4 °F /  4.1 °C 29.99 in /  1015.5 hPa East 6.1 mph /  9.8 km/h 8.1 mph /  13 km/h 96 % 0.00 in /  0 mm
12:52 40.3 °F /  4.6 °C 39.3 °F /  4.1 °C 29.99 in /  1015.5 hPa East 5.8 mph /  9.3 km/h 8.0 mph /  12.9 km/h 96 % 0.00 in /  0 mm
12:57 40.3 °F /  4.6 °C 39.3 °F /  4.1 °C 29.99 in /  1015.5 hPa SE 7.7 mph /  12.4 km/h 12.0 mph /  19.3 km/h 96 % 0.00 in /  0 mm
13:02 40.2 °F /  4.6 °C 39.2 °F /  4 °C 29.99 in /  1015.5 hPa East 5.3 mph /  8.5 km/h 8.1 mph /  13 km/h 96 % 0.00 in /  0 mm
13:07 40.2 °F /  4.6 °C 39.2 °F /  4 °C 29.99 in /  1015.5 hPa East 6.0 mph /  9.7 km/h 12.0 mph /  19.3 km/h 96 % 0.00 in /  0 mm
13:12 40.2 °F /  4.6 °C 39.2 °F /  4 °C 29.99 in /  1015.5 hPa East 6.0 mph /  9.7 km/h 9.0 mph /  14.5 km/h 96 % 0.00 in /  0 mm
13:17 40.2 °F /  4.6 °C 39.2 °F /  4 °C 29.98 in /  1015.1 hPa East 9.0 mph /  14.5 km/h 14.0 mph /  22.5 km/h 96 % 0.00 in /  0 mm
13:22 40.1 °F /  4.5 °C 39.1 °F /  3.9 °C 29.98 in /  1015.1 hPa East 6.9 mph /  11.1 km/h 10.0 mph /  16.1 km/h 96 % 0.00 in /  0 mm
13:27 40.0 °F /  4.4 °C 39.0 °F /  3.9 °C 29.98 in /  1015.1 hPa East 8.0 mph /  12.9 km/h 16.0 mph /  25.7 km/h 96 % 0.00 in /  0 mm
13:32 39.9 °F /  4.4 °C 38.6 °F /  3.7 °C 29.98 in /  1015.1 hPa ESE 8.0 mph /  12.9 km/h 16.0 mph /  25.7 km/h 95 % 0.00 in /  0 mm
13:37 39.9 °F /  4.4 °C 38.6 °F /  3.7 °C 29.98 in /  1015.1 hPa East 6.0 mph /  9.7 km/h 9.2 mph /  14.8 km/h 95 % 0.01 in /  0.25 mm
13:42 39.8 °F /  4.3 °C 38.5 °F /  3.6 °C 29.97 in /  1014.8 hPa East 8.4 mph /  13.5 km/h 11.5 mph /  18.5 km/h 95 % 0.01 in /  0.25 mm
13:47 39.8 °F /  4.3 °C 38.5 °F /  3.6 °C 29.97 in /  1014.8 hPa East 10.0 mph /  16.1 km/h 14.0 mph /  22.5 km/h 95 % 0.00 in /  0 mm
13:52 39.7 °F /  4.3 °C 38.4 °F /  3.6 °C 29.97 in /  1014.8 hPa East 11.2 mph /  18 km/h 14.0 mph /  22.5 km/h 95 % 0.01 in /  0.25 mm
13:57 39.6 °F /  4.2 °C 38.3 °F /  3.5 °C 29.97 in /  1014.8 hPa ESE 10.3 mph /  16.6 km/h 13.0 mph /  20.9 km/h 95 % 0.01 in /  0.25 mm
14:02 39.5 °F /  4.2 °C 38.2 °F /  3.4 °C 29.96 in /  1014.4 hPa East 6.1 mph /  9.8 km/h 11.5 mph /  18.5 km/h 95 % 0.01 in /  0.25 mm
14:07 39.5 °F /  4.2 °C 38.2 °F /  3.4 °C 29.96 in /  1014.4 hPa East 7.0 mph /  11.3 km/h 9.2 mph /  14.8 km/h 95 % 0.01 in /  0.25 mm
14:12 39.4 °F /  4.1 °C 37.8 °F /  3.2 °C 29.97 in /  1014.8 hPa SE 6.0 mph /  9.7 km/h 8.1 mph /  13 km/h 94 % 0.01 in /  0.25 mm
14:17 39.3 °F /  4.1 °C 37.7 °F /  3.2 °C 29.96 in /  1014.4 hPa East 8.0 mph /  12.9 km/h 9.2 mph /  14.8 km/h 94 % 0.01 in /  0.25 mm
14:22 39.3 °F /  4.1 °C 38.0 °F /  3.3 °C 29.96 in /  1014.4 hPa East 8.8 mph /  14.2 km/h 9.2 mph /  14.8 km/h 95 % 0.01 in /  0.25 mm
14:27 39.2 °F /  4 °C 37.9 °F /  3.3 °C 29.96 in /  1014.4 hPa East 9.4 mph /  15.1 km/h 12.7 mph /  20.4 km/h 95 % 0.00 in /  0 mm
14:32 39.1 °F /  3.9 °C 37.8 °F /  3.2 °C 29.96 in /  1014.4 hPa East 9.2 mph /  14.8 km/h 13.8 mph /  22.2 km/h 95 % 0.00 in /  0 mm
14:37 39.1 °F /  3.9 °C 37.8 °F /  3.2 °C 29.95 in /  1014.1 hPa East 8.0 mph /  12.9 km/h 13.0 mph /  20.9 km/h 95 % 0.00 in /  0 mm
14:42 39.1 °F /  3.9 °C 37.8 °F /  3.2 °C 29.95 in /  1014.1 hPa East 8.0 mph /  12.9 km/h 10.0 mph /  16.1 km/h 95 % 0.00 in /  0 mm
14:47 39.1 °F /  3.9 °C 37.8 °F /  3.2 °C 29.94 in /  1013.8 hPa East 8.0 mph /  12.9 km/h 16.0 mph /  25.7 km/h 95 % 0.00 in /  0 mm
14:52 39.0 °F /  3.9 °C 37.7 °F /  3.2 °C 29.94 in /  1013.8 hPa East 9.0 mph /  14.5 km/h 14.0 mph /  22.5 km/h 95 % 0.00 in /  0 mm
14:57 38.9 °F /  3.8 °C 37.6 °F /  3.1 °C 29.94 in /  1013.8 hPa ESE 10.6 mph /  17.1 km/h 13.0 mph /  20.9 km/h 95 % 0.00 in /  0 mm
15:02 38.9 °F /  3.8 °C 37.6 °F /  3.1 °C 29.93 in /  1013.4 hPa East 9.0 mph /  14.5 km/h 15.0 mph /  24.1 km/h 95 % 0.00 in /  0 mm
15:07 38.9 °F /  3.8 °C 37.6 °F /  3.1 °C 29.94 in /  1013.8 hPa East 9.0 mph /  14.5 km/h 14.0 mph /  22.5 km/h 95 % 0.00 in /  0 mm
15:12 38.9 °F /  3.8 °C 37.6 °F /  3.1 °C 29.93 in /  1013.4 hPa East 10.0 mph /  16.1 km/h 11.0 mph /  17.7 km/h 95 % 0.01 in /  0.25 mm
15:17 38.8 °F /  3.8 °C 37.5 °F /  3.1 °C 29.93 in /  1013.4 hPa East 12.0 mph /  19.3 km/h 15.0 mph /  24.1 km/h 95 % 0.00 in /  0 mm
15:22 38.9 °F /  3.8 °C 37.6 °F /  3.1 °C 29.93 in /  1013.4 hPa East 10.0 mph /  16.1 km/h 14.0 mph /  22.5 km/h 95 % 0.00 in /  0 mm
15:27 38.9 °F /  3.8 °C 37.6 °F /  3.1 °C 29.92 in /  1013.1 hPa East 10.0 mph /  16.1 km/h 15.0 mph /  24.1 km/h 95 % 0.00 in /  0 mm
15:32 39.0 °F /  3.9 °C 37.7 °F /  3.2 °C 29.92 in /  1013.1 hPa East 9.0 mph /  14.5 km/h 13.0 mph /  20.9 km/h 95 % 0.00 in /  0 mm
15:37 39.0 °F /  3.9 °C 37.7 °F /  3.2 °C 29.92 in /  1013.1 hPa East 10.4 mph /  16.7 km/h 12.7 mph /  20.4 km/h 95 % 0.01 in /  0.25 mm
15:42 39.0 °F /  3.9 °C 37.7 °F /  3.2 °C 29.92 in /  1013.1 hPa East 8.9 mph /  14.3 km/h 12.7 mph /  20.4 km/h 95 % 0.01 in /  0.25 mm
15:47 39.1 °F /  3.9 °C 37.8 °F /  3.2 °C 29.91 in /  1012.8 hPa East 9.0 mph /  14.5 km/h 13.0 mph /  20.9 km/h 95 % 0.00 in /  0 mm
15:52 39.1 °F /  3.9 °C 37.8 °F /  3.2 °C 29.91 in /  1012.8 hPa East 9.0 mph /  14.5 km/h 14.0 mph /  22.5 km/h 95 % 0.00 in /  0 mm
15:57 39.1 °F /  3.9 °C 37.8 °F /  3.2 °C 29.91 in /  1012.8 hPa East 8.6 mph /  13.8 km/h 11.5 mph /  18.5 km/h 95 % 0.01 in /  0.25 mm
16:03 39.1 °F /  3.9 °C 37.8 °F /  3.2 °C 29.90 in /  1012.4 hPa ESE 9.2 mph /  14.8 km/h 12.7 mph /  20.4 km/h 95 % 0.00 in /  0 mm
16:08 39.1 °F /  3.9 °C 37.8 °F /  3.2 °C 29.90 in /  1012.4 hPa East 10.1 mph /  16.3 km/h 12.7 mph /  20.4 km/h 95 % 0.00 in /  0 mm
16:13 39.1 °F /  3.9 °C 37.8 °F /  3.2 °C 29.89 in /  1012.1 hPa East 9.6 mph /  15.4 km/h 11.5 mph /  18.5 km/h 95 % 0.00 in /  0 mm
16:18 39.2 °F /  4 °C 38.2 °F /  3.4 °C 29.89 in /  1012.1 hPa East 11.7 mph /  18.8 km/h 15.0 mph /  24.1 km/h 96 % 0.00 in /  0 mm
16:23 39.1 °F /  3.9 °C 38.1 °F /  3.4 °C 29.90 in /  1012.4 hPa East 10.1 mph /  16.3 km/h 15.0 mph /  24.1 km/h 96 % 0.00 in /  0 mm
16:28 39.1 °F /  3.9 °C 37.8 °F /  3.2 °C 29.90 in /  1012.4 hPa East 9.9 mph /  15.9 km/h 15.0 mph /  24.1 km/h 95 % 0.00 in /  0 mm
16:33 39.2 °F /  4 °C 38.2 °F /  3.4 °C 29.90 in /  1012.4 hPa East 10.9 mph /  17.5 km/h 15.0 mph /  24.1 km/h 96 % 0.00 in /  0 mm
16:38 39.2 °F /  4 °C 38.2 °F /  3.4 °C 29.89 in /  1012.1 hPa East 10.6 mph /  17.1 km/h 13.8 mph /  22.2 km/h 96 % 0.00 in /  0 mm
16:43 39.2 °F /  4 °C 38.2 °F /  3.4 °C 29.88 in /  1011.7 hPa East 10.1 mph /  16.3 km/h 16.1 mph /  25.9 km/h 96 % 0.00 in /  0 mm
16:48 39.2 °F /  4 °C 37.9 °F /  3.3 °C 29.88 in /  1011.7 hPa East 11.0 mph /  17.7 km/h 15.0 mph /  24.1 km/h 95 % 0.00 in /  0 mm
16:53 39.2 °F /  4 °C 37.9 °F /  3.3 °C 29.88 in /  1011.7 hPa ESE 11.0 mph /  17.7 km/h 16.1 mph /  25.9 km/h 95 % 0.00 in /  0 mm
16:58 39.2 °F /  4 °C 37.9 °F /  3.3 °C 29.87 in /  1011.4 hPa East 13.2 mph /  21.2 km/h 15.0 mph /  24.1 km/h 95 % 0.01 in /  0.25 mm
17:03 39.1 °F /  3.9 °C 37.8 °F /  3.2 °C 29.87 in /  1011.4 hPa East 11.5 mph /  18.5 km/h 15.0 mph /  24.1 km/h 95 % 0.01 in /  0.25 mm
17:08 39.1 °F /  3.9 °C 37.8 °F /  3.2 °C 29.86 in /  1011.1 hPa East 11.0 mph /  17.7 km/h 15.0 mph /  24.1 km/h 95 % 0.01 in /  0.25 mm
17:13 39.1 °F /  3.9 °C 37.8 °F /  3.2 °C 29.86 in /  1011.1 hPa East 9.6 mph /  15.4 km/h 13.8 mph /  22.2 km/h 95 % 0.01 in /  0.25 mm
17:18 39.1 °F /  3.9 °C 37.8 °F /  3.2 °C 29.86 in /  1011.1 hPa East 10.9 mph /  17.5 km/h 15.0 mph /  24.1 km/h 95 % 0.01 in /  0.25 mm
17:23 39.1 °F /  3.9 °C 37.8 °F /  3.2 °C 29.85 in /  1010.7 hPa East 13.8 mph /  22.2 km/h 16.1 mph /  25.9 km/h 95 % 0.01 in /  0.25 mm
17:28 39.1 °F /  3.9 °C 37.8 °F /  3.2 °C 29.85 in /  1010.7 hPa East 11.4 mph /  18.3 km/h 17.3 mph /  27.8 km/h 95 % 0.01 in /  0.25 mm
17:33 39.1 °F /  3.9 °C 38.1 °F /  3.4 °C 29.85 in /  1010.7 hPa East 10.2 mph /  16.4 km/h 12.7 mph /  20.4 km/h 96 % 0.01 in /  0.25 mm
17:38 39.1 °F /  3.9 °C 38.1 °F /  3.4 °C 29.84 in /  1010.4 hPa East 11.4 mph /  18.3 km/h 15.0 mph /  24.1 km/h 96 % 0.01 in /  0.25 mm
17:43 39.1 °F /  3.9 °C 38.1 °F /  3.4 °C 29.84 in /  1010.4 hPa East 12.5 mph /  20.1 km/h 19.6 mph /  31.5 km/h 96 % 0.01 in /  0.25 mm
17:49 39.0 °F /  3.9 °C 38.0 °F /  3.3 °C 29.84 in /  1010.4 hPa East 13.5 mph /  21.7 km/h 17.3 mph /  27.8 km/h 96 % 0.01 in /  0.25 mm
17:54 39.0 °F /  3.9 °C 38.0 °F /  3.3 °C 29.84 in /  1010.4 hPa East 10.1 mph /  16.3 km/h 16.1 mph /  25.9 km/h 96 % 0.01 in /  0.25 mm
17:59 39.0 °F /  3.9 °C 38.0 °F /  3.3 °C 29.83 in /  1010 hPa East 13.5 mph /  21.7 km/h 16.1 mph /  25.9 km/h 96 % 0.01 in /  0.25 mm
18:04 39.0 °F /  3.9 °C 38.0 °F /  3.3 °C 29.83 in /  1010 hPa ENE 10.0 mph /  16.1 km/h 13.8 mph /  22.2 km/h 96 % 0.01 in /  0.25 mm
18:09 39.0 °F /  3.9 °C 38.0 °F /  3.3 °C 29.83 in /  1010 hPa East 10.4 mph /  16.7 km/h 14.0 mph /  22.5 km/h 96 % 0.01 in /  0.25 mm
18:14 39.0 °F /  3.9 °C 38.0 °F /  3.3 °C 29.83 in /  1010 hPa East 10.5 mph /  16.9 km/h 12.7 mph /  20.4 km/h 96 % 0.01 in /  0.25 mm
18:19 39.0 °F /  3.9 °C 38.0 °F /  3.3 °C 29.83 in /  1010 hPa East 11.9 mph /  19.2 km/h 16.1 mph /  25.9 km/h 96 % 0.01 in /  0.25 mm
18:24 39.0 °F /  3.9 °C 38.0 °F /  3.3 °C 29.82 in /  1009.7 hPa East 13.0 mph /  20.9 km/h 17.3 mph /  27.8 km/h 96 % 0.01 in /  0.25 mm
18:29 39.0 °F /  3.9 °C 38.0 °F /  3.3 °C 29.82 in /  1009.7 hPa East 10.6 mph /  17.1 km/h 12.7 mph /  20.4 km/h 96 % 0.01 in /  0.25 mm
18:34 39.0 °F /  3.9 °C 38.0 °F /  3.3 °C 29.82 in /  1009.7 hPa ENE 11.4 mph /  18.3 km/h 13.8 mph /  22.2 km/h 96 % 0.01 in /  0.25 mm
18:39 39.1 °F /  3.9 °C 38.1 °F /  3.4 °C 29.82 in /  1009.7 hPa East 11.7 mph /  18.8 km/h 16.1 mph /  25.9 km/h 96 % 0.01 in /  0.25 mm
18:44 39.1 °F /  3.9 °C 38.1 °F /  3.4 °C 29.82 in /  1009.7 hPa East 10.2 mph /  16.4 km/h 13.8 mph /  22.2 km/h 96 % 0.01 in /  0.25 mm
18:49 39.1 °F /  3.9 °C 38.1 °F /  3.4 °C 29.82 in /  1009.7 hPa East 11.0 mph /  17.7 km/h 14.0 mph /  22.5 km/h 96 % 0.01 in /  0.25 mm
18:54 39.1 °F /  3.9 °C 38.1 °F /  3.4 °C 29.82 in /  1009.7 hPa East 11.4 mph /  18.3 km/h 17.3 mph /  27.8 km/h 96 % 0.01 in /  0.25 mm
18:59 39.1 °F /  3.9 °C 38.1 °F /  3.4 °C 29.82 in /  1009.7 hPa ENE 12.3 mph /  19.8 km/h 15.0 mph /  24.1 km/h 96 % 0.00 in /  0 mm
19:05 39.1 °F /  3.9 °C 38.1 °F /  3.4 °C 29.81 in /  1009.4 hPa East 10.9 mph /  17.5 km/h 13.8 mph /  22.2 km/h 96 % 0.00 in /  0 mm
19:10 39.1 °F /  3.9 °C 38.1 °F /  3.4 °C 29.80 in /  1009 hPa ENE 12.2 mph /  19.6 km/h 17.3 mph /  27.8 km/h 96 % 0.00 in /  0 mm
19:15 39.1 °F /  3.9 °C 38.1 °F /  3.4 °C 29.81 in /  1009.4 hPa East 10.8 mph /  17.4 km/h 14.0 mph /  22.5 km/h 96 % 0.00 in /  0 mm
19:20 39.1 °F /  3.9 °C 38.1 °F /  3.4 °C 29.80 in /  1009 hPa East 11.0 mph /  17.7 km/h 13.0 mph /  20.9 km/h 96 % 0.00 in /  0 mm
19:25 39.1 °F /  3.9 °C 38.1 °F /  3.4 °C 29.80 in /  1009 hPa East 12.0 mph /  19.3 km/h 16.1 mph /  25.9 km/h 96 % 0.00 in /  0 mm
19:30 39.1 °F /  3.9 °C 38.1 °F /  3.4 °C 29.80 in /  1009 hPa East 10.7 mph /  17.2 km/h 13.8 mph /  22.2 km/h 96 % 0.00 in /  0 mm
19:35 39.1 °F /  3.9 °C 38.1 °F /  3.4 °C 29.80 in /  1009 hPa ENE 10.7 mph /  17.2 km/h 13.8 mph /  22.2 km/h 96 % 0.00 in /  0 mm
19:40 39.1 °F /  3.9 °C 38.1 °F /  3.4 °C 29.80 in /  1009 hPa East 11.5 mph /  18.5 km/h 16.1 mph /  25.9 km/h 96 % 0.01 in /  0.25 mm
19:45 39.1 °F /  3.9 °C 38.1 °F /  3.4 °C 29.79 in /  1008.7 hPa East 11.0 mph /  17.7 km/h 13.8 mph /  22.2 km/h 96 % 0.01 in /  0.25 mm
19:50 39.2 °F /  4 °C 38.2 °F /  3.4 °C 29.78 in /  1008.4 hPa ENE 11.0 mph /  17.7 km/h 13.8 mph /  22.2 km/h 96 % 0.01 in /  0.25 mm
19:55 39.2 °F /  4 °C 38.2 °F /  3.4 °C 29.78 in /  1008.4 hPa East 12.1 mph /  19.5 km/h 15.0 mph /  24.1 km/h 96 % 0.01 in /  0.25 mm
20:00 39.2 °F /  4 °C 38.2 °F /  3.4 °C 29.78 in /  1008.4 hPa East 12.5 mph /  20.1 km/h 16.1 mph /  25.9 km/h 96 % 0.01 in /  0.25 mm
20:05 39.2 °F /  4 °C 38.2 °F /  3.4 °C 29.78 in /  1008.4 hPa ENE 11.6 mph /  18.7 km/h 16.1 mph /  25.9 km/h 96 % 0.01 in /  0.25 mm
20:10 39.2 °F /  4 °C 38.2 °F /  3.4 °C 29.78 in /  1008.4 hPa East 9.7 mph /  15.6 km/h 13.8 mph /  22.2 km/h 96 % 0.01 in /  0.25 mm
20:15 39.2 °F /  4 °C 38.2 °F /  3.4 °C 29.78 in /  1008.4 hPa ENE 13.8 mph /  22.2 km/h 15.0 mph /  24.1 km/h 96 % 0.01 in /  0.25 mm
20:20 39.2 °F /  4 °C 38.2 °F /  3.4 °C 29.78 in /  1008.4 hPa East 10.2 mph /  16.4 km/h 16.1 mph /  25.9 km/h 96 % 0.01 in /  0.25 mm
20:25 39.2 °F /  4 °C 38.2 °F /  3.4 °C 29.78 in /  1008.4 hPa ENE 8.9 mph /  14.3 km/h 16.1 mph /  25.9 km/h 96 % 0.01 in /  0.25 mm
20:30 39.2 °F /  4 °C 38.2 °F /  3.4 °C 29.78 in /  1008.4 hPa ENE 11.4 mph /  18.3 km/h 13.8 mph /  22.2 km/h 96 % 0.01 in /  0.25 mm
20:36 39.2 °F /  4 °C 38.2 °F /  3.4 °C 29.77 in /  1008 hPa East 14.3 mph /  23 km/h 17.3 mph /  27.8 km/h 96 % 0.01 in /  0.25 mm
20:41 39.2 °F /  4 °C 38.2 °F /  3.4 °C 29.78 in /  1008.4 hPa East 11.3 mph /  18.2 km/h 17.3 mph /  27.8 km/h 96 % 0.00 in /  0 mm
20:46 39.2 °F /  4 °C 38.2 °F /  3.4 °C 29.77 in /  1008 hPa ENE 9.6 mph /  15.4 km/h 15.0 mph /  24.1 km/h 96 % 0.00 in /  0 mm
20:51 39.1 °F /  3.9 °C 38.1 °F /  3.4 °C 29.78 in /  1008.4 hPa East 8.3 mph /  13.4 km/h 13.8 mph /  22.2 km/h 96 % 0.00 in /  0 mm
20:56 39.0 °F /  3.9 °C 38.0 °F /  3.3 °C 29.78 in /  1008.4 hPa East 9.3 mph /  15 km/h 13.8 mph /  22.2 km/h 96 % 0.00 in /  0 mm
21:01 38.8 °F /  3.8 °C 37.8 °F /  3.2 °C 29.78 in /  1008.4 hPa ENE 9.1 mph /  14.6 km/h 15.0 mph /  24.1 km/h 96 % 0.01 in /  0.25 mm
21:06 38.8 °F /  3.8 °C 37.8 °F /  3.2 °C 29.78 in /  1008.4 hPa East 10.9 mph /  17.5 km/h 16.1 mph /  25.9 km/h 96 % 0.01 in /  0.25 mm
21:11 38.8 °F /  3.8 °C 37.8 °F /  3.2 °C 29.78 in /  1008.4 hPa ENE 9.9 mph /  15.9 km/h 13.8 mph /  22.2 km/h 96 % 0.01 in /  0.25 mm
21:16 38.8 °F /  3.8 °C 37.8 °F /  3.2 °C 29.77 in /  1008 hPa ENE 9.7 mph /  15.6 km/h 12.7 mph /  20.4 km/h 96 % 0.01 in /  0.25 mm
21:21 38.8 °F /  3.8 °C 37.8 °F /  3.2 °C 29.77 in /  1008 hPa East 11.7 mph /  18.8 km/h 16.1 mph /  25.9 km/h 96 % 0.01 in /  0.25 mm
21:26 38.8 °F /  3.8 °C 37.8 °F /  3.2 °C 29.77 in /  1008 hPa East 12.9 mph /  20.8 km/h 16.1 mph /  25.9 km/h 96 % 0.01 in /  0.25 mm
21:31 38.8 °F /  3.8 °C 38.0 °F /  3.3 °C 29.76 in /  1007.7 hPa ENE 12.3 mph /  19.8 km/h 15.0 mph /  24.1 km/h 97 % 0.01 in /  0.25 mm
21:36 38.7 °F /  3.7 °C 37.9 °F /  3.3 °C 29.76 in /  1007.7 hPa ENE 12.5 mph /  20.1 km/h 16.1 mph /  25.9 km/h 97 % 0.01 in /  0.25 mm
21:41 38.7 °F /  3.7 °C 37.9 °F /  3.3 °C 29.76 in /  1007.7 hPa ENE 13.3 mph /  21.4 km/h 17.3 mph /  27.8 km/h 97 % 0.01 in /  0.25 mm
21:46 38.7 °F /  3.7 °C 37.7 °F /  3.2 °C 29.76 in /  1007.7 hPa ENE 13.8 mph /  22.2 km/h 18.4 mph /  29.6 km/h 96 % 0.01 in /  0.25 mm
21:51 38.7 °F /  3.7 °C 37.7 °F /  3.2 °C 29.76 in /  1007.7 hPa ENE 12.9 mph /  20.8 km/h 16.1 mph /  25.9 km/h 96 % 0.01 in /  0.25 mm
21:56 38.7 °F /  3.7 °C 37.7 °F /  3.2 °C 29.75 in /  1007.3 hPa ENE 13.8 mph /  22.2 km/h 17.3 mph /  27.8 km/h 96 % 0.01 in /  0.25 mm
22:01 38.6 °F /  3.7 °C 37.8 °F /  3.2 °C 29.74 in /  1007 hPa ENE 13.5 mph /  21.7 km/h 19.6 mph /  31.5 km/h 97 % 0.00 in /  0 mm
22:06 38.6 °F /  3.7 °C 37.8 °F /  3.2 °C 29.74 in /  1007 hPa NE 13.6 mph /  21.9 km/h 17.3 mph /  27.8 km/h 97 % 0.00 in /  0 mm
22:11 38.6 °F /  3.7 °C 37.8 °F /  3.2 °C 29.73 in /  1006.7 hPa ENE 14.4 mph /  23.2 km/h 20.7 mph /  33.3 km/h 97 % 0.00 in /  0 mm
22:16 38.6 °F /  3.7 °C 37.8 °F /  3.2 °C 29.73 in /  1006.7 hPa ENE 13.9 mph /  22.4 km/h 19.6 mph /  31.5 km/h 97 % 0.00 in /  0 mm
22:21 38.5 °F /  3.6 °C 37.7 °F /  3.2 °C 29.73 in /  1006.7 hPa ENE 13.7 mph /  22 km/h 18.0 mph /  29 km/h 97 % 0.00 in /  0 mm
22:26 38.4 °F /  3.6 °C 37.6 °F /  3.1 °C 29.73 in /  1006.7 hPa ENE 13.0 mph /  20.9 km/h 17.3 mph /  27.8 km/h 97 % 0.00 in /  0 mm
22:31 38.4 °F /  3.6 °C 37.6 °F /  3.1 °C 29.73 in /  1006.7 hPa ENE 14.8 mph /  23.8 km/h 21.9 mph /  35.2 km/h 97 % 0.00 in /  0 mm
22:36 38.4 °F /  3.6 °C 37.6 °F /  3.1 °C 29.73 in /  1006.7 hPa ENE 12.0 mph /  19.3 km/h 16.1 mph /  25.9 km/h 97 % 0.00 in /  0 mm
22:41 38.3 °F /  3.5 °C 37.5 °F /  3.1 °C 29.72 in /  1006.3 hPa ENE 15.5 mph /  24.9 km/h 19.6 mph /  31.5 km/h 97 % 0.00 in /  0 mm
22:46 38.3 °F /  3.5 °C 37.5 °F /  3.1 °C 29.72 in /  1006.3 hPa NE 15.0 mph /  24.1 km/h 18.4 mph /  29.6 km/h 97 % 0.00 in /  0 mm
22:51 38.2 °F /  3.4 °C 37.4 °F /  3 °C 29.72 in /  1006.3 hPa NE 11.6 mph /  18.7 km/h 16.1 mph /  25.9 km/h 97 % 0.00 in /  0 mm
22:56 38.2 °F /  3.4 °C 37.4 °F /  3 °C 29.72 in /  1006.3 hPa ENE 13.8 mph /  22.2 km/h 18.4 mph /  29.6 km/h 97 % 0.00 in /  0 mm
23:01 38.2 °F /  3.4 °C 37.4 °F /  3 °C 29.72 in /  1006.3 hPa ENE 14.1 mph /  22.7 km/h 23.0 mph /  37 km/h 97 % 0.00 in /  0 mm
23:06 38.1 °F /  3.4 °C 37.3 °F /  2.9 °C 29.72 in /  1006.3 hPa East 13.3 mph /  21.4 km/h 17.0 mph /  27.4 km/h 97 % 0.00 in /  0 mm
23:11 38.1 °F /  3.4 °C 37.3 °F /  2.9 °C 29.72 in /  1006.3 hPa East 13.7 mph /  22 km/h 18.4 mph /  29.6 km/h 97 % 0.00 in /  0 mm
23:16 38.0 °F /  3.3 °C 37.2 °F /  2.9 °C 29.72 in /  1006.3 hPa ENE 12.7 mph /  20.4 km/h 17.3 mph /  27.8 km/h 97 % 0.01 in /  0.25 mm
23:21 38.0 °F /  3.3 °C 37.2 °F /  2.9 °C 29.73 in /  1006.7 hPa ENE 14.5 mph /  23.3 km/h 18.4 mph /  29.6 km/h 97 % 0.01 in /  0.25 mm
23:26 37.9 °F /  3.3 °C 37.1 °F /  2.8 °C 29.72 in /  1006.3 hPa ENE 13.2 mph /  21.2 km/h 18.4 mph /  29.6 km/h 97 % 0.01 in /  0.25 mm
23:32 37.8 °F /  3.2 °C 37.0 °F /  2.8 °C 29.72 in /  1006.3 hPa East 14.0 mph /  22.5 km/h 21.0 mph /  33.8 km/h 97 % 0.01 in /  0.25 mm
23:37 37.8 °F /  3.2 °C 37.0 °F /  2.8 °C 29.72 in /  1006.3 hPa ENE 15.4 mph /  24.8 km/h 19.6 mph /  31.5 km/h 97 % 0.01 in /  0.25 mm
23:42 37.7 °F /  3.2 °C 36.9 °F /  2.7 °C 29.72 in /  1006.3 hPa ENE 14.5 mph /  23.3 km/h 19.6 mph /  31.5 km/h 97 % 0.01 in /  0.25 mm
23:47 37.7 °F /  3.2 °C 36.9 °F /  2.7 °C 29.71 in /  1006 hPa East 15.8 mph /  25.4 km/h 21.9 mph /  35.2 km/h 97 % 0.01 in /  0.25 mm
23:52 37.6 °F /  3.1 °C 36.8 °F /  2.7 °C 29.72 in /  1006.3 hPa East 14.2 mph /  22.9 km/h 19.6 mph /  31.5 km/h 97 % 0.01 in /  0.25 mm
23:57 37.6 °F /  3.1 °C 36.8 °F /  2.7 °C 29.71 in /  1006 hPa East 13.5 mph /  21.7 km/h 19.6 mph /  31.5 km/h 97 % 0.01 in /  0.25 mm
Crab Meadow Weather
Compliments of Weather Underground - 3 mb

Script developed by  Jim McMurry - jmcmurry@mwt.net Adapted for the template by  Wim van der Kuil - Leuven-Template.eu

Weather Terms: Severe Local Storms - These are short-fused, small scale hazardous weather or hydrologic events produced by thunderstorms, including large hail, damaging winds, tornadoes, and flash floods.